Deweyville, Utah
Current Conditions -  °F | °C
As of 5:55 PM on Monday 22 Dec 2014 (Local Time) from KBMC Reporting Station
Broken Clouds Broken Clouds  
Wind Chill: 27°   Ceiling: 4100
Heat Index: 37°   Visibility: 10mi
Dew Point: 32°   Wind: 18mph
Humidity: 82%   Direction: 340°NNW
Pressure: 30.07"   Gusts: 22mph
Location:  41.71°N, 112.09°W
Report Text: KBMC 230055Z AUTO 34016G19KT 10SM SCT024 SCT035 BKN041 03/00 A3007 RMK AO1 T00280000
Loading
Personal Weather Stations






























Interactive Weather Map New forecast layout! Learn more

10-Day Weather Forecast

Advertisements
Track Severe Weather on mobile